Arusha, Tanzania

6:10 PM EAT on March 26, 2017 (GMT +0300)
Arusha | | Change Station

Elev 4514 ft 3.38 °S, 36.64 °E | Updated 1 minute ago

Mostly Cloudy
Mostly Cloudy
81.6 °F
Feels Like 84 °F
N
0.0
Wind Variable Wind from ESE
Gusts 0.0 mph

Today
High -- | Low -- °F
--% Chance of Precip.
Yesterday
High -- | Low -- °F
Precip. -- in
Pressure 29.95 in
Visibility 6.2 miles
Clouds Mostly Cloudy 3000 ft
Few 3200 ft
Heat Index 84 °F
Dew Point 66 °F
Humidity 60%
Rainfall 0.22 in
Snow Depth Not available.
6:36 AM 6:41 PM
Waning Crescent, 3% visible
METAR HTAR 261400Z 05010KT 9999 BKN030 FEW032CB 28/21 Q1014
Pressure 29.95 in
Visibility 6.2 miles
Clouds Mostly Cloudy 3000 ft
Few 3200 ft
Heat Index 84 °F
Dew Point 66 °F
Humidity 60%
Rainfall 0.22 in
Snow Depth Not available.
6:36 AM 6:41 PM
Waning Crescent, 3% visible
METAR HTAR 261400Z 05010KT 9999 BKN030 FEW032CB 28/21 Q1014

Get Severe Weather Alerts

Thanks for signing up!

Be on the lookout for a verification email in your inbox.

You'll start receiving the daily forecast at 8 AM.

×

10-Day Weather Forecast

No radar image for this location.
×

Almanac

Astronomy

Mar. 26, 2017 Rise Set
Actual Time
Civil Twilight
Nautical Twilight
Astronomical Twilight
Moon
Length of Visible Light
Length of Day
Tomorrow will be .
, % of the Moon is Illuminated

Today's Extremes

Country Highs Country Lows

Community

WunderPhotos

Upload Photos

1,962,540 photos uploaded!

WunderBlog® & News

Nearby

Air Quality

  Air Quality AQ Index Pollutant
Not available.

Snow Depth

Station Depth Elevation

Earthquake Activity

City Distance Mag. Time & Date
Minimum magnitude displayed is 2.5.

Earthquake Activity

City Distance Mag. Time & Date
Minimum magnitude displayed is 2.5.

Coastal Water Temperatures

Place Temperature

Stations

Nearby Weather Stations

Station Location Temp. Windchill Dew Point Humidity Wind Precip. Elev Updated Type